sensor_id;sensor_type;location;lat;lon;timestamp;pressure;altitude;pressure_sealevel;temperature;humidity
42105;BME280;70664;51.472;5.712;2023-11-18T00:00:51;102219.22;;;16.09;69.03
42105;BME280;70664;51.472;5.712;2023-11-18T00:03:17;102223.53;;;16.08;68.64
42105;BME280;70664;51.472;5.712;2023-11-18T00:05:43;102223.53;;;16.07;68.68
42105;BME280;70664;51.472;5.712;2023-11-18T00:08:08;102213.13;;;16.05;68.62
42105;BME280;70664;51.472;5.712;2023-11-18T00:10:34;102215.75;;;16.03;68.97
42105;BME280;70664;51.472;5.712;2023-11-18T00:13:00;102217.47;;;16.01;68.67
42105;BME280;70664;51.472;5.712;2023-11-18T00:15:27;102218.34;;;15.99;68.97
42105;BME280;70664;51.472;5.712;2023-11-18T00:17:53;102220.06;;;15.98;68.99
42105;BME280;70664;51.472;5.712;2023-11-18T00:20:19;102225.25;;;15.97;68.78
42105;BME280;70664;51.472;5.712;2023-11-18T00:22:46;102221.78;;;15.96;68.88
42105;BME280;70664;51.472;5.712;2023-11-18T00:25:11;102213.13;;;15.94;68.85
42105;BME280;70664;51.472;5.712;2023-11-18T00:27:40;102219.16;;;15.93;68.74
42105;BME280;70664;51.472;5.712;2023-11-18T00:30:06;102212.25;;;15.92;68.87
42105;BME280;70664;51.472;5.712;2023-11-18T00:32:37;102211.38;;;15.90;69.02
42105;BME280;70664;51.472;5.712;2023-11-18T00:35:04;102208.78;;;15.88;68.90
42105;BME280;70664;51.472;5.712;2023-11-18T00:37:30;102212.25;;;15.87;68.84
42105;BME280;70664;51.472;5.712;2023-11-18T00:39:57;102212.25;;;15.87;68.79
42105;BME280;70664;51.472;5.712;2023-11-18T00:42:22;102213.94;;;15.85;68.42
42105;BME280;70664;51.472;5.712;2023-11-18T00:44:48;102215.66;;;15.85;68.62
42105;BME280;70664;51.472;5.712;2023-11-18T00:47:14;102213.06;;;15.83;68.67
42105;BME280;70664;51.472;5.712;2023-11-18T00:49:40;102211.31;;;15.82;68.85
42105;BME280;70664;51.472;5.712;2023-11-18T00:52:06;102207.88;;;15.83;68.80
42105;BME280;70664;51.472;5.712;2023-11-18T00:54:34;102209.59;;;15.81;68.50
42105;BME280;70664;51.472;5.712;2023-11-18T00:57:00;102201.78;;;15.78;68.62
42105;BME280;70664;51.472;5.712;2023-11-18T00:59:25;102206.13;;;15.79;68.46
42105;BME280;70664;51.472;5.712;2023-11-18T01:01:52;102213.03;;;15.77;68.58
42105;BME280;70664;51.472;5.712;2023-11-18T01:04:18;102216.50;;;15.78;68.78
42105;BME280;70664;51.472;5.712;2023-11-18T01:06:45;102209.59;;;15.75;68.72
42105;BME280;70664;51.472;5.712;2023-11-18T01:09:11;102213.88;;;15.75;68.54
42105;BME280;70664;51.472;5.712;2023-11-18T01:11:37;102217.34;;;15.73;68.73
42105;BME280;70664;51.472;5.712;2023-11-18T01:14:03;102216.50;;;15.73;68.77
42105;BME280;70664;51.472;5.712;2023-11-18T01:16:29;102214.75;;;15.72;68.44
42105;BME280;70664;51.472;5.712;2023-11-18T01:18:55;102219.91;;;15.70;68.72
42105;BME280;70664;51.472;5.712;2023-11-18T01:21:21;102225.09;;;15.70;68.72
42105;BME280;70664;51.472;5.712;2023-11-18T01:23:47;102227.69;;;15.70;68.43
42105;BME280;70664;51.472;5.712;2023-11-18T01:26:14;102230.31;;;15.69;68.56
42105;BME280;70664;51.472;5.712;2023-11-18T01:28:41;102234.59;;;15.68;68.51
42105;BME280;70664;51.472;5.712;2023-11-18T01:31:09;102233.75;;;15.68;68.86
42105;BME280;70664;51.472;5.712;2023-11-18T01:33:44;102236.34;;;15.68;68.50
42105;BME280;70664;51.472;5.712;2023-11-18T01:36:12;102234.59;;;15.65;68.52
42105;BME280;70664;51.472;5.712;2023-11-18T01:38:38;102233.72;;;15.66;68.65
42105;BME280;70664;51.472;5.712;2023-11-18T01:41:05;102224.22;;;15.64;68.68
42105;BME280;70664;51.472;5.712;2023-11-18T01:43:32;102219.91;;;15.63;68.61
42105;BME280;70664;51.472;5.712;2023-11-18T01:46:03;102218.16;;;15.63;68.43
42105;BME280;70664;51.472;5.712;2023-11-18T01:48:31;102222.50;;;15.61;68.40
42105;BME280;70664;51.472;5.712;2023-11-18T01:50:59;102218.16;;;15.62;68.43
42105;BME280;70664;51.472;5.712;2023-11-18T01:53:27;102215.59;;;15.60;68.36
42105;BME280;70664;51.472;5.712;2023-11-18T01:55:55;102223.34;;;15.58;68.57
42105;BME280;70664;51.472;5.712;2023-11-18T01:58:20;102226.81;;;15.59;68.74
42105;BME280;70664;51.472;5.712;2023-11-18T02:00:50;102217.28;;;15.56;68.69
42105;BME280;70664;51.472;5.712;2023-11-18T02:03:19;102219.88;;;15.56;68.78
42105;BME280;70664;51.472;5.712;2023-11-18T02:05:46;102221.59;;;15.57;68.37
42105;BME280;70664;51.472;5.712;2023-11-18T02:08:12;102220.72;;;15.55;68.48
42105;BME280;70664;51.472;5.712;2023-11-18T02:11:00;102210.34;;;15.54;68.70
42105;BME280;70664;51.472;5.712;2023-11-18T02:13:34;102219.84;;;15.53;68.79
42105;BME280;70664;51.472;5.712;2023-11-18T02:16:04;102217.25;;;15.53;68.58
42105;BME280;70664;51.472;5.712;2023-11-18T02:18:33;102224.16;;;15.51;68.80
42105;BME280;70664;51.472;5.712;2023-11-18T02:20:59;102221.56;;;15.51;68.55
42105;BME280;70664;51.472;5.712;2023-11-18T02:23:26;102219.81;;;15.50;68.58
42105;BME280;70664;51.472;5.712;2023-11-18T02:25:52;102215.53;;;15.51;68.69
42105;BME280;70664;51.472;5.712;2023-11-18T02:28:19;102220.72;;;15.51;68.66
42105;BME280;70664;51.472;5.712;2023-11-18T02:30:45;102220.69;;;15.48;68.33
42105;BME280;70664;51.472;5.712;2023-11-18T02:33:35;102224.16;;;15.50;68.55
42105;BME280;70664;51.472;5.712;2023-11-18T02:36:26;102229.31;;;15.48;68.71
42105;BME280;70664;51.472;5.712;2023-11-18T02:39:04;102236.25;;;15.48;68.52
42105;BME280;70664;51.472;5.712;2023-11-18T02:41:38;102237.09;;;15.48;68.35
42105;BME280;70664;51.472;5.712;2023-11-18T02:44:06;102231.06;;;15.46;68.55
42105;BME280;70664;51.472;5.712;2023-11-18T02:46:37;102233.66;;;15.46;68.42
42105;BME280;70664;51.472;5.712;2023-11-18T02:49:04;102219.81;;;15.46;68.30
42105;BME280;70664;51.472;5.712;2023-11-18T02:51:29;102218.97;;;15.45;68.66
42105;BME280;70664;51.472;5.712;2023-11-18T02:53:57;102212.03;;;15.44;68.56
42105;BME280;70664;51.472;5.712;2023-11-18T02:56:23;102209.44;;;15.42;68.66
42105;BME280;70664;51.472;5.712;2023-11-18T02:58:49;102207.72;;;15.43;68.52
42105;BME280;70664;51.472;5.712;2023-11-18T03:01:14;102197.34;;;15.43;68.50
42105;BME280;70664;51.472;5.712;2023-11-18T03:03:40;102193.03;;;15.42;68.66
42105;BME280;70664;51.472;5.712;2023-11-18T03:06:08;102185.25;;;15.42;68.76
42105;BME280;70664;51.472;5.712;2023-11-18T03:08:34;102189.56;;;15.40;68.82
42105;BME280;70664;51.472;5.712;2023-11-18T03:10:59;102194.75;;;15.40;68.51
42105;BME280;70664;51.472;5.712;2023-11-18T03:13:25;102174.00;;;15.40;68.33
42105;BME280;70664;51.472;5.712;2023-11-18T03:15:51;102180.06;;;15.39;68.46
42105;BME280;70664;51.472;5.712;2023-11-18T03:18:17;102180.03;;;15.37;68.71
42105;BME280;70664;51.472;5.712;2023-11-18T03:20:44;102183.50;;;15.38;68.41
42105;BME280;70664;51.472;5.712;2023-11-18T03:23:09;102175.69;;;15.36;68.61
42105;BME280;70664;51.472;5.712;2023-11-18T03:25:35;102174.00;;;15.37;68.53
42105;BME280;70664;51.472;5.712;2023-11-18T03:28:01;102173.09;;;15.36;68.86
42105;BME280;70664;51.472;5.712;2023-11-18T03:30:27;102193.84;;;15.35;68.54
42105;BME280;70664;51.472;5.712;2023-11-18T03:32:54;102194.69;;;15.35;68.51
42105;BME280;70664;51.472;5.712;2023-11-18T03:35:20;102195.59;;;15.36;68.29
42105;BME280;70664;51.472;5.712;2023-11-18T03:37:46;102193.84;;;15.33;68.60
42105;BME280;70664;51.472;5.712;2023-11-18T03:40:14;102192.13;;;15.34;68.63
42105;BME280;70664;51.472;5.712;2023-11-18T03:42:43;102184.34;;;15.32;68.73
42105;BME280;70664;51.472;5.712;2023-11-18T03:45:11;102180.88;;;15.32;68.43
42105;BME280;70664;51.472;5.712;2023-11-18T03:47:37;102176.56;;;15.29;68.60
42105;BME280;70664;51.472;5.712;2023-11-18T03:50:03;102173.97;;;15.29;68.54
42105;BME280;70664;51.472;5.712;2023-11-18T03:52:30;102167.91;;;15.30;68.82
42105;BME280;70664;51.472;5.712;2023-11-18T03:54:56;102171.38;;;15.29;68.67
42105;BME280;70664;51.472;5.712;2023-11-18T03:57:22;102153.22;;;15.29;68.51
42105;BME280;70664;51.472;5.712;2023-11-18T03:59:48;102148.03;;;15.27;68.72
42105;BME280;70664;51.472;5.712;2023-11-18T04:02:13;102148.88;;;15.26;68.71
42105;BME280;70664;51.472;5.712;2023-11-18T04:04:39;102152.34;;;15.25;68.43
42105;BME280;70664;51.472;5.712;2023-11-18T04:07:05;102135.94;;;15.26;68.53
42105;BME280;70664;51.472;5.712;2023-11-18T04:09:32;102119.50;;;15.24;68.75
42105;BME280;70664;51.472;5.712;2023-11-18T04:11:58;102122.13;;;15.26;68.59
42105;BME280;70664;51.472;5.712;2023-11-18T04:14:24;102117.81;;;15.25;68.72
42105;BME280;70664;51.472;5.712;2023-11-18T04:16:51;102115.19;;;15.22;68.64
42105;BME280;70664;51.472;5.712;2023-11-18T04:19:17;102117.78;;;15.23;68.33
42105;BME280;70664;51.472;5.712;2023-11-18T04:21:43;102116.06;;;15.21;68.68
42105;BME280;70664;51.472;5.712;2023-11-18T04:24:13;102122.97;;;15.23;68.64
42105;BME280;70664;51.472;5.712;2023-11-18T04:26:41;102117.78;;;15.22;68.25
42105;BME280;70664;51.472;5.712;2023-11-18T04:29:07;102106.53;;;15.21;68.54
42105;BME280;70664;51.472;5.712;2023-11-18T04:31:33;102108.28;;;15.19;68.30
42105;BME280;70664;51.472;5.712;2023-11-18T04:34:00;102103.94;;;15.20;68.66
42105;BME280;70664;51.472;5.712;2023-11-18T04:36:25;102105.69;;;15.19;68.27
42105;BME280;70664;51.472;5.712;2023-11-18T04:38:52;102092.75;;;15.19;68.22
42105;BME280;70664;51.472;5.712;2023-11-18T04:41:18;102090.16;;;15.19;68.62
42105;BME280;70664;51.472;5.712;2023-11-18T04:43:44;102094.44;;;15.19;68.34
42105;BME280;70664;51.472;5.712;2023-11-18T04:46:10;102091.00;;;15.18;68.24
42105;BME280;70664;51.472;5.712;2023-11-18T04:48:36;102087.53;;;15.18;68.24
42105;BME280;70664;51.472;5.712;2023-11-18T04:51:02;102078.91;;;15.17;68.55
42105;BME280;70664;51.472;5.712;2023-11-18T04:53:28;102079.78;;;15.16;68.32
42105;BME280;70664;51.472;5.712;2023-11-18T04:55:53;102089.25;;;15.16;68.48
42105;BME280;70664;51.472;5.712;2023-11-18T04:58:20;102082.34;;;15.15;68.45
42105;BME280;70664;51.472;5.712;2023-11-18T05:00:46;102078.88;;;15.16;68.18
42105;BME280;70664;51.472;5.712;2023-11-18T05:03:13;102081.47;;;15.12;68.67
42105;BME280;70664;51.472;5.712;2023-11-18T05:05:40;102075.44;;;15.13;68.35
42105;BME280;70664;51.472;5.712;2023-11-18T05:08:06;102065.06;;;15.13;68.28
42105;BME280;70664;51.472;5.712;2023-11-18T05:10:34;102069.41;;;15.13;68.14
42105;BME280;70664;51.472;5.712;2023-11-18T05:13:01;102072.84;;;15.13;68.54
42105;BME280;70664;51.472;5.712;2023-11-18T05:15:27;102070.25;;;15.12;68.38
42105;BME280;70664;51.472;5.712;2023-11-18T05:17:55;102066.78;;;15.11;68.24
42105;BME280;70664;51.472;5.712;2023-11-18T05:20:21;102060.72;;;15.09;68.17
42105;BME280;70664;51.472;5.712;2023-11-18T05:22:48;102064.19;;;15.10;68.43
42105;BME280;70664;51.472;5.712;2023-11-18T05:25:14;102056.44;;;15.10;68.20
42105;BME280;70664;51.472;5.712;2023-11-18T05:27:40;102051.25;;;15.10;68.33
42105;BME280;70664;51.472;5.712;2023-11-18T05:30:10;102040.88;;;15.10;68.26
42105;BME280;70664;51.472;5.712;2023-11-18T05:32:36;102036.56;;;15.09;68.39
42105;BME280;70664;51.472;5.712;2023-11-18T05:35:04;102026.19;;;15.07;68.23
42105;BME280;70664;51.472;5.712;2023-11-18T05:37:31;102026.19;;;15.07;68.52
42105;BME280;70664;51.472;5.712;2023-11-18T05:40:02;102027.06;;;15.08;68.21
42105;BME280;70664;51.472;5.712;2023-11-18T05:42:36;102034.81;;;15.08;68.33
42105;BME280;70664;51.472;5.712;2023-11-18T05:45:06;102039.13;;;15.07;68.58
42105;BME280;70664;51.472;5.712;2023-11-18T05:47:33;102046.03;;;15.07;68.48
42105;BME280;70664;51.472;5.712;2023-11-18T05:50:00;102044.31;;;15.06;68.23
42105;BME280;70664;51.472;5.712;2023-11-18T05:52:26;102040.00;;;15.05;68.18
42105;BME280;70664;51.472;5.712;2023-11-18T05:54:52;102028.78;;;15.04;68.26
42105;BME280;70664;51.472;5.712;2023-11-18T05:57:19;102026.19;;;15.04;68.31
42105;BME280;70664;51.472;5.712;2023-11-18T05:59:45;102021.00;;;15.04;68.56
42105;BME280;70664;51.472;5.712;2023-11-18T06:02:14;102016.69;;;15.03;68.54
42105;BME280;70664;51.472;5.712;2023-11-18T06:04:44;102018.41;;;15.03;68.54
42105;BME280;70664;51.472;5.712;2023-11-18T06:07:11;102020.13;;;15.02;68.31
42105;BME280;70664;51.472;5.712;2023-11-18T06:09:40;102018.41;;;15.03;68.18
42105;BME280;70664;51.472;5.712;2023-11-18T06:12:08;102010.63;;;15.01;68.22
42105;BME280;70664;51.472;5.712;2023-11-18T06:14:38;102004.59;;;15.01;68.57
42105;BME280;70664;51.472;5.712;2023-11-18T06:17:04;101992.50;;;15.01;68.33
42105;BME280;70664;51.472;5.712;2023-11-18T06:19:33;101984.75;;;15.01;68.25
42105;BME280;70664;51.472;5.712;2023-11-18T06:21:59;101983.00;;;15.00;68.55
42105;BME280;70664;51.472;5.712;2023-11-18T06:24:25;101997.69;;;14.98;67.97
42105;BME280;70664;51.472;5.712;2023-11-18T06:26:51;102002.84;;;15.00;68.19
42105;BME280;70664;51.472;5.712;2023-11-18T06:29:17;102008.03;;;14.98;68.24
42105;BME280;70664;51.472;5.712;2023-11-18T06:31:44;102014.06;;;14.97;68.22
42105;BME280;70664;51.472;5.712;2023-11-18T06:34:09;102013.22;;;14.98;68.56
42105;BME280;70664;51.472;5.712;2023-11-18T06:36:35;102016.66;;;14.97;68.51
42105;BME280;70664;51.472;5.712;2023-11-18T06:39:01;102014.94;;;14.96;68.32
42105;BME280;70664;51.472;5.712;2023-11-18T06:41:27;102001.97;;;14.96;68.26
42105;BME280;70664;51.472;5.712;2023-11-18T06:43:59;102002.84;;;14.95;68.60
42105;BME280;70664;51.472;5.712;2023-11-18T06:46:33;101995.06;;;14.95;68.35
42105;BME280;70664;51.472;5.712;2023-11-18T06:49:01;102000.22;;;14.93;68.51
42105;BME280;70664;51.472;5.712;2023-11-18T06:51:34;102006.28;;;14.94;68.48
42105;BME280;70664;51.472;5.712;2023-11-18T06:54:05;102001.09;;;14.94;68.05
42105;BME280;70664;51.472;5.712;2023-11-18T06:56:42;102001.09;;;14.94;68.25
42105;BME280;70664;51.472;5.712;2023-11-18T06:59:09;101992.47;;;14.93;68.42
42105;BME280;70664;51.472;5.712;2023-11-18T07:01:39;101985.56;;;14.94;68.48
42105;BME280;70664;51.472;5.712;2023-11-18T07:04:06;101984.69;;;14.93;68.20
42105;BME280;70664;51.472;5.712;2023-11-18T07:06:36;101977.78;;;14.92;68.33
42105;BME280;70664;51.472;5.712;2023-11-18T07:09:06;101978.69;;;14.91;68.17
42105;BME280;70664;51.472;5.712;2023-11-18T07:11:43;101976.94;;;14.90;68.29
42105;BME280;70664;51.472;5.712;2023-11-18T07:14:10;101981.25;;;14.90;68.41
42105;BME280;70664;51.472;5.712;2023-11-18T07:16:38;101980.38;;;14.89;68.47
42105;BME280;70664;51.472;5.712;2023-11-18T07:19:05;101976.94;;;14.87;68.51
42105;BME280;70664;51.472;5.712;2023-11-18T07:21:31;101979.50;;;14.89;68.45
42105;BME280;70664;51.472;5.712;2023-11-18T07:23:56;101970.00;;;14.88;68.24
42105;BME280;70664;51.472;5.712;2023-11-18T07:26:23;101974.34;;;14.87;68.22
42105;BME280;70664;51.472;5.712;2023-11-18T07:28:50;101984.69;;;14.89;68.24
42105;BME280;70664;51.472;5.712;2023-11-18T07:31:17;101980.38;;;14.86;68.25
42105;BME280;70664;51.472;5.712;2023-11-18T07:33:45;101974.34;;;14.87;68.12
42105;BME280;70664;51.472;5.712;2023-11-18T07:36:18;101976.91;;;14.86;68.30
42105;BME280;70664;51.472;5.712;2023-11-18T07:38:47;101979.50;;;14.87;68.28
42105;BME280;70664;51.472;5.712;2023-11-18T07:41:13;101985.53;;;14.85;68.22
42105;BME280;70664;51.472;5.712;2023-11-18T07:43:54;101994.16;;;14.87;67.97
42105;BME280;70664;51.472;5.712;2023-11-18T07:46:25;101989.00;;;14.85;68.35
42105;BME280;70664;51.472;5.712;2023-11-18T07:48:52;101991.59;;;14.85;68.19
42105;BME280;70664;51.472;5.712;2023-11-18T07:51:19;101994.19;;;14.85;68.09
42105;BME280;70664;51.472;5.712;2023-11-18T07:53:49;101997.63;;;14.84;68.09
42105;BME280;70664;51.472;5.712;2023-11-18T07:56:15;102001.91;;;14.83;67.94
42105;BME280;70664;51.472;5.712;2023-11-18T07:58:45;102004.53;;;14.87;68.42
42105;BME280;70664;51.472;5.712;2023-11-18T08:01:12;102002.81;;;14.87;68.63
42105;BME280;70664;51.472;5.712;2023-11-18T08:03:38;102000.22;;;14.84;68.29
42105;BME280;70664;51.472;5.712;2023-11-18T08:06:07;101994.16;;;14.87;68.55
42105;BME280;70664;51.472;5.712;2023-11-18T08:08:34;101993.28;;;14.85;68.87
42105;BME280;70664;51.472;5.712;2023-11-18T08:10:59;101998.50;;;14.88;68.83
42105;BME280;70664;51.472;5.712;2023-11-18T08:13:25;101993.31;;;14.88;69.00
42105;BME280;70664;51.472;5.712;2023-11-18T08:15:52;101998.50;;;14.88;68.74
42105;BME280;70664;51.472;5.712;2023-11-18T08:18:18;102013.16;;;14.89;69.27
42105;BME280;70664;51.472;5.712;2023-11-18T08:20:47;102008.84;;;14.88;69.09
42105;BME280;70664;51.472;5.712;2023-11-18T08:23:13;101990.72;;;14.88;69.37
42105;BME280;70664;51.472;5.712;2023-11-18T08:25:39;101987.28;;;14.90;69.13
42105;BME280;70664;51.472;5.712;2023-11-18T08:28:06;101977.78;;;14.88;69.38
42105;BME280;70664;51.472;5.712;2023-11-18T08:30:33;101976.06;;;14.88;69.42
42105;BME280;70664;51.472;5.712;2023-11-18T08:33:00;101976.94;;;14.87;69.35
42105;BME280;70664;51.472;5.712;2023-11-18T08:35:25;101989.88;;;14.90;69.75
42105;BME280;70664;51.472;5.712;2023-11-18T08:37:51;101978.63;;;14.85;70.17
42105;BME280;70664;51.472;5.712;2023-11-18T08:40:18;101985.56;;;14.89;70.00
42105;BME280;70664;51.472;5.712;2023-11-18T08:42:54;101970.88;;;14.87;69.99
42105;BME280;70664;51.472;5.712;2023-11-18T08:45:26;101963.97;;;14.87;70.27
42105;BME280;70664;51.472;5.712;2023-11-18T08:48:03;101963.97;;;14.89;69.88
42105;BME280;70664;51.472;5.712;2023-11-18T08:50:34;101959.69;;;14.89;70.15
42105;BME280;70664;51.472;5.712;2023-11-18T08:53:00;101957.06;;;14.86;70.04
42105;BME280;70664;51.472;5.712;2023-11-18T08:55:31;101957.94;;;14.90;70.36
42105;BME280;70664;51.472;5.712;2023-11-18T08:58:16;101953.63;;;14.90;70.35
42105;BME280;70664;51.472;5.712;2023-11-18T09:00:51;101953.63;;;14.92;70.45
42105;BME280;70664;51.472;5.712;2023-11-18T09:03:25;101946.72;;;14.89;70.75
42105;BME280;70664;51.472;5.712;2023-11-18T09:06:01;101934.63;;;14.94;70.45
42105;BME280;70664;51.472;5.712;2023-11-18T09:08:36;101929.47;;;14.91;70.93
42105;BME280;70664;51.472;5.712;2023-11-18T09:11:06;101933.78;;;14.94;70.85
42105;BME280;70664;51.472;5.712;2023-11-18T09:13:33;101932.94;;;15.00;71.17
42105;BME280;70664;51.472;5.712;2023-11-18T09:16:10;101929.50;;;15.02;71.29
42105;BME280;70664;51.472;5.712;2023-11-18T09:18:41;101929.47;;;15.04;71.54
42105;BME280;70664;51.472;5.712;2023-11-18T09:21:09;101924.31;;;15.11;71.53
42105;BME280;70664;51.472;5.712;2023-11-18T09:23:42;101915.69;;;15.09;71.33
42105;BME280;70664;51.472;5.712;2023-11-18T09:26:08;101909.63;;;15.13;71.06
42105;BME280;70664;51.472;5.712;2023-11-18T09:28:37;101903.63;;;15.13;70.88
42105;BME280;70664;51.472;5.712;2023-11-18T09:31:04;101902.75;;;15.11;71.04
42105;BME280;70664;51.472;5.712;2023-11-18T09:33:33;101905.31;;;15.05;71.48
42105;BME280;70664;51.472;5.712;2023-11-18T09:35:59;101894.09;;;15.21;71.37
42105;BME280;70664;51.472;5.712;2023-11-18T09:38:33;101890.66;;;15.32;70.97
42105;BME280;70664;51.472;5.712;2023-11-18T09:41:02;101885.50;;;15.38;70.79
42105;BME280;70664;51.472;5.712;2023-11-18T09:43:36;101890.66;;;15.24;71.13
42105;BME280;70664;51.472;5.712;2023-11-18T09:46:09;101881.16;;;15.26;71.33
42105;BME280;70664;51.472;5.712;2023-11-18T09:48:47;101873.38;;;15.23;71.48
42105;BME280;70664;51.472;5.712;2023-11-18T09:51:24;101858.72;;;15.28;71.45
42105;BME280;70664;51.472;5.712;2023-11-18T09:53:54;101859.59;;;15.33;71.06
42105;BME280;70664;51.472;5.712;2023-11-18T09:59:23;101854.38;;;15.46;71.03
42105;BME280;70664;51.472;5.712;2023-11-18T10:01:57;101845.75;;;15.45;70.96
42105;BME280;70664;51.472;5.712;2023-11-18T10:04:24;101836.22;;;15.50;71.14
42105;BME280;70664;51.472;5.712;2023-11-18T10:06:54;101834.50;;;15.52;71.05
42105;BME280;70664;51.472;5.712;2023-11-18T10:09:23;101835.38;;;15.56;70.75
42105;BME280;70664;51.472;5.712;2023-11-18T10:12:03;101840.53;;;15.51;71.03
42105;BME280;70664;51.472;5.712;2023-11-18T10:14:36;101842.31;;;15.46;71.12
42105;BME280;70664;51.472;5.712;2023-11-18T10:17:06;101833.66;;;15.42;71.26
42105;BME280;70664;51.472;5.712;2023-11-18T10:22:25;101837.94;;;15.51;71.28
42105;BME280;70664;51.472;5.712;2023-11-18T10:24:52;101827.63;;;15.45;71.73
42105;BME280;70664;51.472;5.712;2023-11-18T10:27:29;101830.19;;;15.48;71.61
42105;BME280;70664;51.472;5.712;2023-11-18T10:30:03;101822.41;;;15.57;71.35
42105;BME280;70664;51.472;5.712;2023-11-18T10:32:30;101818.97;;;15.57;71.25
42105;BME280;70664;51.472;5.712;2023-11-18T10:35:01;101819.81;;;15.51;71.20
42105;BME280;70664;51.472;5.712;2023-11-18T10:37:27;101809.47;;;15.42;71.68
42105;BME280;70664;51.472;5.712;2023-11-18T10:39:57;101787.00;;;15.47;71.75
42105;BME280;70664;51.472;5.712;2023-11-18T10:42:26;101781.84;;;15.47;71.97
42105;BME280;70664;51.472;5.712;2023-11-18T10:44:59;101792.16;;;15.53;71.47
42105;BME280;70664;51.472;5.712;2023-11-18T10:47:33;101799.09;;;15.56;71.62
42105;BME280;70664;51.472;5.712;2023-11-18T10:50:01;101791.31;;;15.50;71.62
42105;BME280;70664;51.472;5.712;2023-11-18T10:52:27;101783.53;;;15.48;71.47
42105;BME280;70664;51.472;5.712;2023-11-18T10:55:01;101775.78;;;15.50;71.92
42105;BME280;70664;51.472;5.712;2023-11-18T10:57:32;101780.94;;;15.47;71.81
42105;BME280;70664;51.472;5.712;2023-11-18T11:00:06;101773.19;;;15.50;71.50
42105;BME280;70664;51.472;5.712;2023-11-18T11:02:44;101763.66;;;15.52;71.75
42105;BME280;70664;51.472;5.712;2023-11-18T11:05:11;101761.97;;;15.46;71.84
42105;BME280;70664;51.472;5.712;2023-11-18T11:07:45;101761.09;;;15.47;72.16
42105;BME280;70664;51.472;5.712;2023-11-18T11:10:11;101767.13;;;15.49;72.33
42105;BME280;70664;51.472;5.712;2023-11-18T11:13:02;101767.16;;;15.46;72.21
42105;BME280;70664;51.472;5.712;2023-11-18T11:15:32;101772.31;;;15.41;72.05
42105;BME280;70664;51.472;5.712;2023-11-18T11:18:05;101765.44;;;15.42;71.81
42105;BME280;70664;51.472;5.712;2023-11-18T11:20:44;101768.03;;;15.36;72.09
42105;BME280;70664;51.472;5.712;2023-11-18T11:23:42;101754.19;;;15.45;71.82
42105;BME280;70664;51.472;5.712;2023-11-18T11:27:01;101745.56;;;15.41;72.07
42105;BME280;70664;51.472;5.712;2023-11-18T11:29:42;101731.72;;;15.37;71.93
42105;BME280;70664;51.472;5.712;2023-11-18T11:32:27;101728.28;;;15.43;71.89
42105;BME280;70664;51.472;5.712;2023-11-18T11:35:15;101715.28;;;15.48;71.60
42105;BME280;70664;51.472;5.712;2023-11-18T11:37:44;101715.31;;;15.46;72.07
42105;BME280;70664;51.472;5.712;2023-11-18T11:40:12;101704.09;;;15.44;72.23
42105;BME280;70664;51.472;5.712;2023-11-18T11:42:50;101694.59;;;15.46;72.24
42105;BME280;70664;51.472;5.712;2023-11-18T11:45:26;101692.84;;;15.43;72.02
42105;BME280;70664;51.472;5.712;2023-11-18T11:47:58;101681.63;;;15.35;71.90
42105;BME280;70664;51.472;5.712;2023-11-18T11:51:30;101661.78;;;15.42;71.66
42105;BME280;70664;51.472;5.712;2023-11-18T11:54:11;101651.41;;;15.39;71.67
42105;BME280;70664;51.472;5.712;2023-11-18T11:56:48;101637.59;;;15.40;71.63
42105;BME280;70664;51.472;5.712;2023-11-18T12:02:13;101622.03;;;15.38;71.01
42105;BME280;70664;51.472;5.712;2023-11-18T12:04:45;101621.16;;;15.36;71.36
42105;BME280;70664;51.472;5.712;2023-11-18T12:07:11;101619.50;;;15.32;71.18
42105;BME280;70664;51.472;5.712;2023-11-18T12:09:41;101610.84;;;15.33;71.11
42105;BME280;70664;51.472;5.712;2023-11-18T12:12:20;101585.78;;;15.34;71.18
42105;BME280;70664;51.472;5.712;2023-11-18T12:14:51;101578.88;;;15.36;70.93
42105;BME280;70664;51.472;5.712;2023-11-18T12:17:18;101568.50;;;15.34;71.05
42105;BME280;70664;51.472;5.712;2023-11-18T12:19:48;101556.44;;;15.32;71.44
42105;BME280;70664;51.472;5.712;2023-11-18T12:22:21;101541.75;;;15.32;71.06
42105;BME280;70664;51.472;5.712;2023-11-18T12:33:03;101496.81;;;15.38;70.62
42105;BME280;70664;51.472;5.712;2023-11-18T12:41:42;101482.19;;;15.27;71.31
42105;BME280;70664;51.472;5.712;2023-11-18T12:44:30;101476.13;;;15.30;70.79
42105;BME280;70664;51.472;5.712;2023-11-18T12:47:05;101476.13;;;15.33;70.91
42105;BME280;70664;51.472;5.712;2023-11-18T12:49:44;101458.00;;;15.28;71.23
42105;BME280;70664;51.472;5.712;2023-11-18T12:52:16;101464.00;;;15.35;70.81
42105;BME280;70664;51.472;5.712;2023-11-18T12:54:44;101453.66;;;15.31;71.17
42105;BME280;70664;51.472;5.712;2023-11-18T12:57:29;101440.72;;;15.31;71.67
42105;BME280;70664;51.472;5.712;2023-11-18T12:59:57;101438.16;;;15.26;74.62
42105;BME280;70664;51.472;5.712;2023-11-18T13:02:23;101405.34;;;15.26;75.24
42105;BME280;70664;51.472;5.712;2023-11-18T13:04:49;101406.22;;;15.22;75.85
42105;BME280;70664;51.472;5.712;2023-11-18T13:07:21;101415.75;;;15.19;76.33
42105;BME280;70664;51.472;5.712;2023-11-18T13:09:48;101413.13;;;15.20;77.38
42105;BME280;70664;51.472;5.712;2023-11-18T13:12:15;101400.16;;;15.23;77.20
42105;BME280;70664;51.472;5.712;2023-11-18T13:14:42;101390.75;;;15.16;77.36
42105;BME280;70664;51.472;5.712;2023-11-18T13:17:13;101396.72;;;15.23;77.77
42105;BME280;70664;51.472;5.712;2023-11-18T13:19:42;101396.72;;;15.21;77.45
42105;BME280;70664;51.472;5.712;2023-11-18T13:22:10;101372.59;;;15.19;77.75
42105;BME280;70664;51.472;5.712;2023-11-18T13:24:39;101355.28;;;15.23;77.63